Lake Isabella, CA

7:54 PM PST on November 22, 2014 (GMT -0800)
Squirrel Mountain Valley | Change Station
CLOSE
Current Station
Personal Weather Station
Location: Squirrel Mountain Valley, CA
Elevation: 2884 ft
Nearby Weather Stations
Active Advisory: Wind Advisory Active Notice: Public Information Statement

Elev 2884 ft 35.63 °N, 118.41 °W | Updated 8 seconds ago

Mostly Cloudy
Mostly Cloudy
60.4 °F
Feels Like 60.4 °F
N
11.6
Wind Variable Wind from SW
Gusts 13.0 mph

Today
High -- | Low -- °F
--% Chance of Precip.
Yesterday
High -- | Low -- °F
Precip. -- in
6:36 AM 4:43 PM
New Moon, 0% visible
Pressure 30.09 in
Visibility 0.5 miles
Clouds Overcast 200 ft
Dew Point 48 °F
Humidity 64%
Rainfall 0.00 in
Snow Depth Not available.
UV 0 out of 12
Pollen 2.80 out of 12
Air Quality Not available.
Flu Activity Not available.
METAR KTSP 230315Z AUTO 30016G23KT 1/2SM RA OVC002 08/08 A3009 RMK AO2 P0005

More Conditions Fewer Conditions

Pressure 30.09 in
Visibility 0.5 miles
Clouds Overcast 200 ft
Dew Point 48 °F
Humidity 64%
Rainfall 0.00 in
Snow Depth Not available.
UV 0 out of 12
Pollen 2.80 out of 12
Air Quality Not available.
Flu Activity Not available.
METAR KTSP 230315Z AUTO 30016G23KT 1/2SM RA OVC002 08/08 A3009 RMK AO2 P0005

More Conditions Fewer Conditions

10-Day Weather Forecast

Almanac

Astronomy

Nov. 22, 2014 Rise Set
Actual Time
Civil Twilight
Nautical Twilight
Astronomical Twilight
Moon
Length of Visible Light
Length of Day
Tomorrow will be .
, % of the Moon is Illuminated

Today's Extremes

State Highs State Lows

Community

WunderPhotos

Upload Photos

1,772,990 photos uploaded!

WunderBlogs® & News

Nearby

Air Quality

  Air Quality AQ Index Pollutant
Not available.

Snow Depth

Station Depth Elevation

Earthquake Activity

City Distance Mag. Time & Date
Minimum magnitude displayed is 2.5.

Coastal Water Temperatures

Place Temperature

Nearby Weather Stations